createdAt,value
2023-01-19T00:00:28.577Z,10.73
2023-01-19T00:02:56.294Z,6.87
2023-01-19T00:05:23.657Z,13.02
2023-01-19T00:07:50.912Z,7.93
2023-01-19T00:10:18.581Z,8.30
2023-01-19T00:12:45.892Z,10.20
2023-01-19T00:15:13.181Z,7.93
2023-01-19T00:17:41.167Z,5.80
2023-01-19T00:20:10.114Z,10.60
2023-01-19T00:22:37.404Z,8.45
2023-01-19T00:25:04.809Z,6.10
2023-01-19T00:27:34.956Z,7.17
2023-01-19T00:30:02.997Z,7.13
2023-01-19T00:32:30.365Z,6.03
2023-01-19T00:34:57.619Z,7.50
2023-01-19T00:37:25.157Z,7.45
2023-01-19T00:39:52.435Z,8.37
2023-01-19T00:42:38.695Z,6.95
2023-01-19T00:45:06.600Z,5.00
2023-01-19T00:47:33.824Z,12.98
2023-01-19T00:50:01.048Z,6.65
2023-01-19T00:52:28.307Z,9.65
2023-01-19T00:54:55.563Z,5.93
2023-01-19T00:57:23.536Z,6.65
2023-01-19T00:59:50.986Z,3.28
2023-01-19T01:02:18.373Z,4.63
2023-01-19T01:04:45.731Z,2.50
2023-01-19T01:07:12.997Z,3.53
2023-01-19T01:09:40.299Z,3.15
2023-01-19T01:12:07.656Z,4.22
2023-01-19T01:14:34.928Z,4.22
2023-01-19T01:17:02.345Z,2.70
2023-01-19T01:19:29.629Z,3.63
2023-01-19T01:21:56.875Z,2.88
2023-01-19T01:24:24.121Z,2.42
2023-01-19T01:26:51.360Z,2.92
2023-01-19T01:29:18.655Z,3.05
2023-01-19T01:31:46.096Z,4.32
2023-01-19T01:34:13.399Z,3.70
2023-01-19T01:36:40.697Z,4.18
2023-01-19T01:39:07.981Z,2.80
2023-01-19T01:41:35.213Z,2.97
2023-01-19T01:44:06.211Z,3.72
2023-01-19T01:46:33.516Z,3.05
2023-01-19T01:49:11.264Z,5.18
2023-01-19T01:51:41.488Z,5.43
2023-01-19T01:54:28.991Z,5.00
2023-01-19T01:56:58.690Z,4.53
2023-01-19T01:59:39.008Z,3.83
2023-01-19T02:02:28.799Z,3.63
2023-01-19T02:05:04.051Z,3.35
2023-01-19T02:07:58.541Z,3.40
2023-01-19T02:10:44.314Z,2.67
2023-01-19T02:13:20.933Z,6.55
2023-01-19T02:15:55.649Z,3.95
2023-01-19T02:18:24.387Z,3.88
2023-01-19T02:20:55.796Z,3.53
2023-01-19T02:23:38.273Z,2.38
2023-01-19T02:26:07.202Z,2.05
2023-01-19T02:28:34.711Z,3.30
2023-01-19T02:31:02.126Z,2.58
2023-01-19T02:33:29.572Z,3.00
2023-01-19T02:35:57.503Z,2.97
2023-01-19T02:38:26.509Z,4.18
2023-01-19T02:40:55.463Z,3.03
2023-01-19T02:43:23.325Z,3.28
2023-01-19T02:45:50.701Z,2.37
2023-01-19T02:48:21.256Z,3.42
2023-01-19T02:50:51.155Z,4.55
2023-01-19T02:53:27.793Z,2.60
2023-01-19T02:55:58.111Z,4.40
2023-01-19T02:58:28.176Z,3.40
2023-01-19T03:01:02.336Z,2.50
2023-01-19T03:03:43.941Z,2.58
2023-01-19T03:06:20.274Z,2.55
2023-01-19T03:09:02.361Z,3.90
2023-01-19T03:11:32.719Z,2.97
2023-01-19T03:14:03.615Z,3.17
2023-01-19T03:16:42.001Z,2.92
2023-01-19T03:19:12.030Z,3.13
2023-01-19T03:21:42.770Z,5.43
2023-01-19T03:24:12.048Z,4.17
2023-01-19T03:26:46.097Z,3.47
2023-01-19T03:29:15.869Z,2.83
2023-01-19T03:31:45.347Z,3.58
2023-01-19T03:34:14.193Z,3.47
2023-01-19T03:36:44.211Z,3.85
2023-01-19T03:39:12.643Z,2.55
2023-01-19T03:41:41.688Z,2.85
2023-01-19T03:44:09.693Z,2.80
2023-01-19T03:46:37.071Z,2.25
2023-01-19T03:49:04.353Z,2.83
2023-01-19T03:51:32.025Z,2.22
2023-01-19T03:54:01.381Z,2.58
2023-01-19T03:56:28.872Z,1.90
2023-01-19T03:58:56.998Z,2.33
2023-01-19T04:01:25.103Z,1.83
2023-01-19T04:03:53.095Z,2.30
2023-01-19T04:06:21.222Z,2.50
2023-01-19T04:08:49.118Z,2.10
2023-01-19T04:11:16.592Z,2.97
2023-01-19T04:13:44.004Z,4.77
2023-01-19T04:16:11.788Z,2.97
2023-01-19T04:18:39.159Z,2.75
2023-01-19T04:21:07.864Z,2.60
2023-01-19T04:23:35.515Z,2.97
2023-01-19T04:26:04.064Z,5.47
2023-01-19T04:28:31.909Z,2.28
2023-01-19T04:30:59.264Z,3.03
2023-01-19T04:33:27.701Z,3.42
2023-01-19T04:35:56.072Z,4.28
2023-01-19T04:38:24.101Z,3.80
2023-01-19T04:40:52.770Z,3.05
2023-01-19T04:43:20.721Z,2.70
2023-01-19T04:45:48.577Z,2.47
2023-01-19T04:48:16.530Z,6.22
2023-01-19T04:50:43.765Z,3.83
2023-01-19T04:53:13.608Z,4.47
2023-01-19T04:55:41.345Z,5.57
2023-01-19T04:58:08.670Z,2.38
2023-01-19T05:00:36.339Z,2.67
2023-01-19T05:03:04.078Z,4.57
2023-01-19T05:05:33.111Z,6.00
2023-01-19T05:08:00.622Z,3.63
2023-01-19T05:10:27.884Z,7.93
2023-01-19T05:12:55.302Z,5.20
2023-01-19T05:15:22.855Z,4.68
2023-01-19T05:17:50.227Z,10.40
2023-01-19T05:20:17.616Z,7.13
2023-01-19T05:22:50.074Z,6.63
2023-01-19T05:25:17.655Z,9.88
2023-01-19T05:27:45.248Z,19.53
2023-01-19T05:30:13.389Z,13.80
2023-01-19T05:32:40.854Z,9.30
2023-01-19T05:35:08.314Z,10.50
2023-01-19T05:37:35.609Z,9.35
2023-01-19T05:40:02.883Z,10.40
2023-01-19T05:42:32.136Z,7.70
2023-01-19T05:45:00.256Z,8.60
2023-01-19T05:47:29.947Z,8.48
2023-01-19T05:49:57.291Z,6.90
2023-01-19T05:52:27.450Z,9.63
2023-01-19T05:54:55.221Z,6.75
2023-01-19T05:57:22.718Z,8.77
2023-01-19T05:59:50.483Z,9.23
2023-01-19T06:02:17.930Z,10.00
2023-01-19T06:04:45.298Z,13.43
2023-01-19T06:07:12.580Z,8.05
2023-01-19T06:09:39.817Z,8.70
2023-01-19T06:12:07.253Z,9.13
2023-01-19T06:14:34.606Z,10.45
2023-01-19T06:17:01.861Z,10.33
2023-01-19T06:19:29.168Z,13.40
2023-01-19T06:21:56.809Z,12.25
2023-01-19T06:24:25.210Z,9.48
2023-01-19T06:26:52.509Z,14.52
2023-01-19T06:29:19.838Z,16.33
2023-01-19T06:31:47.110Z,13.73
2023-01-19T06:34:14.590Z,12.80
2023-01-19T06:36:42.377Z,14.15
2023-01-19T06:39:10.614Z,15.73
2023-01-19T06:41:38.316Z,16.23
2023-01-19T06:44:06.501Z,9.13
2023-01-19T06:46:34.975Z,17.33
2023-01-19T06:49:02.417Z,13.40
2023-01-19T06:51:29.925Z,18.02
2023-01-19T06:53:57.878Z,28.88
2023-01-19T06:56:25.247Z,10.77
2023-01-19T06:58:55.885Z,10.60
2023-01-19T07:01:23.510Z,14.73
2023-01-19T07:03:51.126Z,9.43
2023-01-19T07:06:18.692Z,9.00
2023-01-19T07:08:46.251Z,12.68
2023-01-19T07:11:26.742Z,10.25
2023-01-19T07:13:58.842Z,17.17
2023-01-19T07:16:26.786Z,11.95
2023-01-19T07:18:54.224Z,16.67
2023-01-19T07:21:21.916Z,15.48
2023-01-19T07:23:52.971Z,14.50
2023-01-19T07:26:21.831Z,9.02
2023-01-19T07:28:49.807Z,16.08
2023-01-19T07:31:17.951Z,15.20
2023-01-19T07:33:45.653Z,13.27
2023-01-19T07:36:13.727Z,15.52
2023-01-19T07:38:41.115Z,18.50
2023-01-19T07:41:10.052Z,14.40
2023-01-19T07:43:37.702Z,12.87
2023-01-19T07:46:06.522Z,13.43
2023-01-19T07:48:34.545Z,9.10
2023-01-19T07:51:05.347Z,11.85
2023-01-19T07:53:32.973Z,11.88
2023-01-19T07:56:00.449Z,14.02
2023-01-19T07:58:27.860Z,16.65
2023-01-19T08:00:55.417Z,17.40
2023-01-19T08:03:23.274Z,14.60
2023-01-19T08:05:52.189Z,14.82
2023-01-19T08:08:20.047Z,17.60
2023-01-19T08:10:50.383Z,11.70
2023-01-19T08:13:18.644Z,8.90
2023-01-19T08:15:46.063Z,5.80
2023-01-19T08:18:15.735Z,13.10
2023-01-19T08:20:43.240Z,14.10
2023-01-19T08:23:10.674Z,11.73
2023-01-19T08:25:39.647Z,11.68
2023-01-19T08:28:07.858Z,11.05
2023-01-19T08:30:35.537Z,7.93
2023-01-19T08:33:08.052Z,14.03
2023-01-19T08:35:39.704Z,8.00
2023-01-19T08:38:07.714Z,12.25
2023-01-19T08:40:40.041Z,10.43
2023-01-19T08:43:11.926Z,8.68
2023-01-19T08:45:48.157Z,9.50
2023-01-19T08:48:16.403Z,6.70
2023-01-19T08:50:46.247Z,11.73
2023-01-19T08:53:13.501Z,7.63
2023-01-19T08:55:40.917Z,9.23
2023-01-19T08:58:11.504Z,7.78
2023-01-19T09:00:39.469Z,8.00
2023-01-19T09:03:07.779Z,8.43
2023-01-19T09:05:37.306Z,5.40
2023-01-19T09:08:06.224Z,6.32
2023-01-19T09:10:36.054Z,8.32
2023-01-19T09:13:08.133Z,4.75
2023-01-19T09:15:37.767Z,10.07
2023-01-19T09:18:06.923Z,7.25
2023-01-19T09:20:35.867Z,6.18
2023-01-19T09:23:03.131Z,4.38
2023-01-19T09:25:30.444Z,11.15
2023-01-19T09:27:57.672Z,5.93
2023-01-19T09:30:24.903Z,9.10
2023-01-19T09:32:52.189Z,10.88
2023-01-19T09:35:19.519Z,8.07
2023-01-19T09:37:47.416Z,5.70
2023-01-19T09:40:16.044Z,10.25
2023-01-19T09:42:44.755Z,6.18
2023-01-19T09:45:17.714Z,4.75
2023-01-19T09:47:45.783Z,9.30
2023-01-19T09:50:20.636Z,8.50
2023-01-19T09:52:54.994Z,8.13
2023-01-19T09:55:26.426Z,9.70
2023-01-19T09:57:54.333Z,6.30
2023-01-19T10:00:23.322Z,6.10
2023-01-19T10:03:13.310Z,6.83
2023-01-19T10:05:46.676Z,5.82
2023-01-19T10:08:32.726Z,6.95
2023-01-19T10:11:00.260Z,7.45
2023-01-19T10:13:35.087Z,5.50
2023-01-19T10:16:02.473Z,6.70
2023-01-19T10:18:43.071Z,5.15
2023-01-19T10:21:12.594Z,5.13
2023-01-19T10:23:49.308Z,9.02
2023-01-19T10:26:26.835Z,6.35
2023-01-19T10:28:56.507Z,5.03
2023-01-19T10:31:24.706Z,5.53
2023-01-19T10:33:52.746Z,7.20
2023-01-19T10:36:21.732Z,7.22
2023-01-19T10:38:49.825Z,5.53
2023-01-19T10:41:24.024Z,7.37
2023-01-19T10:43:59.160Z,7.88
2023-01-19T10:46:29.554Z,6.60
2023-01-19T10:48:57.119Z,5.88
2023-01-19T10:51:24.459Z,3.92
2023-01-19T10:53:59.124Z,4.27
2023-01-19T10:56:34.791Z,6.90
2023-01-19T10:59:03.496Z,5.57
2023-01-19T11:01:31.489Z,5.50
2023-01-19T11:04:05.642Z,5.85
2023-01-19T11:06:36.589Z,4.67
2023-01-19T11:09:10.750Z,4.90
2023-01-19T11:11:45.918Z,13.35
2023-01-19T11:14:14.515Z,4.43
2023-01-19T11:16:42.226Z,3.67
2023-01-19T11:19:18.090Z,5.13
2023-01-19T11:21:45.366Z,5.80
2023-01-19T11:24:14.775Z,4.55
2023-01-19T11:26:44.298Z,5.57
2023-01-19T11:29:22.239Z,4.80
2023-01-19T11:31:50.545Z,3.13
2023-01-19T11:34:25.722Z,5.70
2023-01-19T11:37:00.490Z,4.78
2023-01-19T11:39:29.342Z,2.70
2023-01-19T11:41:58.170Z,6.20
2023-01-19T11:44:28.019Z,4.97
2023-01-19T11:46:57.618Z,3.28
2023-01-19T11:49:46.298Z,4.18
2023-01-19T11:52:24.826Z,2.58
2023-01-19T11:54:58.568Z,2.92
2023-01-19T11:57:26.391Z,3.60
2023-01-19T11:59:54.775Z,2.53
2023-01-19T12:02:27.802Z,2.58
2023-01-19T12:04:57.505Z,3.95
2023-01-19T12:07:29.577Z,3.80
2023-01-19T12:09:58.988Z,3.83
2023-01-19T12:12:35.281Z,3.58
2023-01-19T12:15:29.129Z,2.85
2023-01-19T12:17:58.715Z,4.35
2023-01-19T12:20:32.282Z,6.30
2023-01-19T12:23:05.087Z,3.57
2023-01-19T12:25:42.445Z,3.08
2023-01-19T12:28:13.638Z,2.50
2023-01-19T12:30:41.150Z,4.88
2023-01-19T12:33:26.799Z,4.53
2023-01-19T12:35:58.604Z,1.90
2023-01-19T12:38:35.230Z,4.43
2023-01-19T12:41:21.426Z,3.30
2023-01-19T12:43:49.483Z,2.55
2023-01-19T12:46:30.810Z,2.55
2023-01-19T12:49:24.515Z,6.17
2023-01-19T12:51:52.841Z,3.70
2023-01-19T12:54:31.732Z,3.50
2023-01-19T12:57:01.605Z,4.40
2023-01-19T12:59:29.231Z,3.63
2023-01-19T13:02:15.473Z,3.87
2023-01-19T13:05:02.678Z,3.00
2023-01-19T13:07:30.044Z,3.75
2023-01-19T13:09:57.358Z,3.20
2023-01-19T13:12:25.465Z,3.15
2023-01-19T13:15:12.668Z,3.93
2023-01-19T13:18:00.210Z,3.72
2023-01-19T13:20:28.933Z,4.75
2023-01-19T13:23:14.984Z,3.33
2023-01-19T13:25:43.502Z,3.22
2023-01-19T13:28:12.022Z,3.20
2023-01-19T13:30:45.951Z,4.80
2023-01-19T13:33:19.900Z,3.08
2023-01-19T13:35:52.557Z,5.45
2023-01-19T13:38:20.471Z,2.00
2023-01-19T13:40:48.044Z,2.20
2023-01-19T13:43:38.153Z,2.67
2023-01-19T13:46:06.634Z,3.33
2023-01-19T13:48:34.346Z,2.47
2023-01-19T13:51:17.696Z,2.67
2023-01-19T13:53:57.923Z,2.67
2023-01-19T13:56:28.404Z,2.45
2023-01-19T13:58:59.739Z,4.95
2023-01-19T14:01:29.371Z,3.08
2023-01-19T14:03:58.027Z,4.43
2023-01-19T14:06:42.917Z,4.30
2023-01-19T14:09:20.390Z,3.28
2023-01-19T14:12:06.907Z,5.20
2023-01-19T14:14:35.233Z,2.88
2023-01-19T14:17:02.797Z,2.72
2023-01-19T14:19:30.162Z,3.97
2023-01-19T14:22:01.421Z,4.20
2023-01-19T14:24:34.888Z,2.50
2023-01-19T14:27:10.386Z,3.38
2023-01-19T14:29:38.138Z,3.90
2023-01-19T14:32:05.420Z,4.87
2023-01-19T14:34:35.921Z,5.28
2023-01-19T14:37:04.678Z,3.47
2023-01-19T14:39:33.517Z,3.42
2023-01-19T14:42:03.161Z,2.03
2023-01-19T14:44:32.837Z,6.30
2023-01-19T14:47:00.983Z,3.47
2023-01-19T14:49:33.578Z,5.90
2023-01-19T14:52:03.345Z,4.82
2023-01-19T14:54:36.009Z,4.78
2023-01-19T14:57:03.472Z,1.87
2023-01-19T14:59:30.780Z,2.40
2023-01-19T15:01:59.820Z,3.78
2023-01-19T15:04:27.456Z,6.07
2023-01-19T15:06:55.846Z,3.35
2023-01-19T15:09:23.546Z,3.13
2023-01-19T15:11:51.170Z,5.10
2023-01-19T15:14:19.314Z,3.70
2023-01-19T15:16:46.686Z,7.80
2023-01-19T15:19:14.504Z,3.72
2023-01-19T15:21:42.387Z,3.67
2023-01-19T15:24:13.246Z,3.33
2023-01-19T15:26:41.989Z,3.45
2023-01-19T15:29:29.189Z,2.92
2023-01-19T15:31:57.074Z,6.10
2023-01-19T15:34:24.347Z,3.43
2023-01-19T15:36:51.664Z,5.18
2023-01-19T15:39:19.003Z,2.90
2023-01-19T15:41:46.312Z,4.38
2023-01-19T15:44:13.709Z,1.92
2023-01-19T15:46:41.049Z,2.80
2023-01-19T15:49:08.431Z,5.07
2023-01-19T15:51:35.743Z,8.40
2023-01-19T15:54:03.167Z,4.75
2023-01-19T15:56:31.434Z,5.85
2023-01-19T15:58:59.215Z,5.55
2023-01-19T16:01:32.402Z,5.40
2023-01-19T16:04:01.332Z,2.78
2023-01-19T16:06:28.998Z,5.07
2023-01-19T16:08:59.812Z,7.68
2023-01-19T16:11:27.794Z,5.10
2023-01-19T16:13:55.162Z,5.88
2023-01-19T16:16:23.713Z,4.13
2023-01-19T16:18:51.095Z,4.95
2023-01-19T16:21:18.735Z,8.00
2023-01-19T16:23:46.106Z,6.22
2023-01-19T16:26:34.352Z,3.72
2023-01-19T16:29:08.766Z,3.88
2023-01-19T16:31:36.892Z,5.13
2023-01-19T16:34:04.362Z,4.07
2023-01-19T16:36:32.721Z,4.70
2023-01-19T16:39:04.423Z,3.90
2023-01-19T16:41:31.722Z,8.82
2023-01-19T16:43:59.331Z,4.80
2023-01-19T16:46:27.918Z,5.50
2023-01-19T16:48:59.460Z,4.78
2023-01-19T16:51:26.791Z,4.30
2023-01-19T16:53:54.114Z,6.53
2023-01-19T16:56:21.398Z,14.93
2023-01-19T16:58:48.649Z,26.55
2023-01-19T17:01:19.883Z,12.60
2023-01-19T17:03:47.846Z,15.73
2023-01-19T17:06:18.100Z,7.25
2023-01-19T17:08:45.447Z,7.65
2023-01-19T17:11:13.902Z,8.27
2023-01-19T17:13:41.196Z,5.78
2023-01-19T17:16:08.624Z,3.75
2023-01-19T17:18:37.865Z,6.35
2023-01-19T17:21:09.990Z,5.18
2023-01-19T17:23:38.095Z,6.78
2023-01-19T17:26:05.747Z,11.60
2023-01-19T17:28:32.991Z,3.55
2023-01-19T17:31:11.071Z,3.97
2023-01-19T17:33:38.906Z,5.28
2023-01-19T17:36:10.486Z,4.22
2023-01-19T17:38:37.918Z,5.50
2023-01-19T17:41:18.670Z,3.55
2023-01-19T17:43:46.070Z,4.75
2023-01-19T17:46:13.720Z,3.60
2023-01-19T17:48:41.060Z,7.63
2023-01-19T17:51:09.407Z,5.20
2023-01-19T17:53:37.127Z,3.67
2023-01-19T17:56:05.230Z,7.53
2023-01-19T17:58:32.607Z,6.05
2023-01-19T18:01:00.116Z,4.45
2023-01-19T18:03:27.384Z,4.18
2023-01-19T18:05:55.173Z,3.38
2023-01-19T18:08:22.747Z,4.30
2023-01-19T18:10:56.515Z,3.47
2023-01-19T18:13:23.843Z,3.95
2023-01-19T18:15:51.409Z,3.30
2023-01-19T18:18:18.764Z,4.45
2023-01-19T18:20:46.040Z,2.67
2023-01-19T18:23:13.402Z,3.00
2023-01-19T18:25:40.905Z,2.63
2023-01-19T18:28:08.158Z,3.67
2023-01-19T18:30:35.859Z,2.97
2023-01-19T18:33:03.287Z,2.63
2023-01-19T18:35:30.736Z,2.45
2023-01-19T18:37:58.597Z,1.95
2023-01-19T18:40:26.130Z,4.40
2023-01-19T18:42:53.395Z,3.10
2023-01-19T18:45:20.639Z,3.95
2023-01-19T18:47:48.202Z,3.33
2023-01-19T18:50:16.686Z,2.75
2023-01-19T18:52:43.931Z,3.63
2023-01-19T18:55:11.185Z,4.53
2023-01-19T18:57:38.457Z,3.03
2023-01-19T19:00:06.250Z,2.83
2023-01-19T19:02:33.711Z,2.40
2023-01-19T19:05:01.566Z,1.95
2023-01-19T19:07:29.012Z,2.40
2023-01-19T19:09:56.283Z,2.50
2023-01-19T19:12:23.549Z,2.33
2023-01-19T19:14:50.867Z,1.70
2023-01-19T19:17:18.268Z,3.67
2023-01-19T19:19:45.490Z,2.40
2023-01-19T19:22:12.793Z,2.55
2023-01-19T19:24:40.407Z,2.70
2023-01-19T19:27:09.891Z,3.00
2023-01-19T19:29:37.177Z,3.90
2023-01-19T19:32:04.536Z,4.05
2023-01-19T19:34:32.093Z,3.63
2023-01-19T19:37:01.109Z,7.97
2023-01-19T19:39:28.758Z,3.88
2023-01-19T19:41:56.016Z,5.88
2023-01-19T19:44:23.394Z,5.82
2023-01-19T19:46:50.682Z,3.20
2023-01-19T19:49:21.436Z,4.38
2023-01-19T19:51:48.793Z,2.60
2023-01-19T19:54:16.029Z,3.65
2023-01-19T19:56:44.301Z,4.25
2023-01-19T19:59:11.606Z,4.43
2023-01-19T20:01:39.029Z,3.65
2023-01-19T20:04:08.184Z,4.47
2023-01-19T20:06:38.907Z,3.05
2023-01-19T20:09:07.135Z,3.10
2023-01-19T20:11:34.382Z,3.05
2023-01-19T20:14:05.326Z,3.47
2023-01-19T20:16:32.835Z,2.53
2023-01-19T20:19:00.135Z,5.45
2023-01-19T20:21:28.596Z,11.27
2023-01-19T20:23:57.143Z,3.25
2023-01-19T20:26:26.592Z,2.85
2023-01-19T20:28:54.259Z,7.35
2023-01-19T20:31:22.987Z,3.20
2023-01-19T20:33:51.159Z,3.17
2023-01-19T20:36:18.586Z,2.78
2023-01-19T20:38:45.929Z,2.50
2023-01-19T20:41:13.438Z,2.88
2023-01-19T20:43:41.031Z,2.58
2023-01-19T20:46:08.323Z,2.90
2023-01-19T20:48:36.096Z,2.95
2023-01-19T20:51:04.644Z,3.90
2023-01-19T20:53:32.694Z,15.38
2023-01-19T20:56:05.940Z,12.93
2023-01-19T20:58:33.783Z,8.65
2023-01-19T21:01:01.199Z,3.65
2023-01-19T21:03:29.558Z,3.80
2023-01-19T21:05:59.471Z,4.53
2023-01-19T21:08:26.864Z,4.43
2023-01-19T21:10:57.969Z,4.80
2023-01-19T21:13:25.383Z,4.68
2023-01-19T21:15:52.667Z,5.30
2023-01-19T21:18:19.980Z,4.60
2023-01-19T21:20:50.406Z,4.55
2023-01-19T21:23:19.117Z,5.10
2023-01-19T21:25:53.347Z,5.38
2023-01-19T21:28:21.679Z,5.78
2023-01-19T21:30:49.352Z,5.97
2023-01-19T21:33:16.975Z,6.13
2023-01-19T21:35:51.295Z,5.00
2023-01-19T21:38:18.593Z,5.25
2023-01-19T21:40:45.982Z,5.20
2023-01-19T21:43:13.588Z,5.30
2023-01-19T21:45:44.081Z,5.32
2023-01-19T21:48:11.476Z,5.53
2023-01-19T21:50:39.210Z,5.72
2023-01-19T21:53:09.282Z,6.10
2023-01-19T21:55:36.634Z,6.20
2023-01-19T21:58:04.356Z,6.57
2023-01-19T22:00:31.701Z,6.22
2023-01-19T22:03:04.015Z,5.95
2023-01-19T22:05:36.811Z,5.18
2023-01-19T22:08:04.874Z,4.97
2023-01-19T22:10:32.175Z,5.45
2023-01-19T22:12:59.511Z,5.18
2023-01-19T22:15:26.821Z,4.60
2023-01-19T22:17:54.107Z,5.55
2023-01-19T22:20:21.362Z,5.03
2023-01-19T22:22:48.671Z,5.50
2023-01-19T22:25:15.954Z,5.72
2023-01-19T22:27:43.202Z,5.10
2023-01-19T22:30:10.644Z,5.38
2023-01-19T22:32:37.858Z,5.05
2023-01-19T22:35:05.325Z,6.18
2023-01-19T22:37:36.299Z,5.22
2023-01-19T22:40:06.638Z,4.70
2023-01-19T22:42:33.862Z,4.80
2023-01-19T22:45:01.155Z,5.05
2023-01-19T22:47:28.372Z,5.18
2023-01-19T22:49:55.820Z,5.57
2023-01-19T22:52:22.985Z,4.90
2023-01-19T22:54:50.900Z,4.70
2023-01-19T22:57:18.513Z,3.88
2023-01-19T22:59:46.112Z,3.90
2023-01-19T23:02:13.446Z,4.32
2023-01-19T23:04:40.671Z,4.40
2023-01-19T23:07:09.342Z,4.55
2023-01-19T23:09:38.172Z,3.95
2023-01-19T23:12:05.778Z,3.33
2023-01-19T23:14:33.202Z,4.00
2023-01-19T23:17:00.531Z,3.85
2023-01-19T23:19:27.831Z,4.75
2023-01-19T23:21:55.214Z,4.65
2023-01-19T23:24:22.489Z,6.28
2023-01-19T23:26:50.647Z,4.20
2023-01-19T23:29:18.120Z,3.88
2023-01-19T23:31:47.374Z,4.78
2023-01-19T23:34:15.078Z,4.57
2023-01-19T23:36:42.836Z,5.85
2023-01-19T23:39:17.974Z,4.78
2023-01-19T23:41:45.714Z,4.30
2023-01-19T23:44:13.220Z,5.00
2023-01-19T23:46:40.647Z,4.77
2023-01-19T23:49:07.952Z,5.25
2023-01-19T23:51:35.841Z,6.25
2023-01-19T23:54:03.228Z,5.80
2023-01-19T23:56:34.889Z,5.63
2023-01-19T23:59:09.491Z,8.23
